Time;durP1;ratioP1;P1;durP2;ratioP2;P2;SDS_P1;SDS_P2;PMS_P1;PMS_P2;Temp;Humidity;BMP_temperature;BMP_pressure;BME280_temperature;BME280_humidity;BME280_pressure;Samples;Min_cycle;Max_cycle;Signal;HPM_P1;HPM_P2
2023/09/19 00:00:46;;;;;;;6.45;2.10;;;17.30;99.60;;;;;;4248841;27;20571;-54
2023/09/19 00:02:53;;;;;;;12.38;2.30;;;17.30;99.70;;;;;;4248540;27;20046;-53
2023/09/19 00:04:55;;;;;;;11.23;2.08;;;17.30;99.80;;;;;;4230512;28;20051;-53
2023/09/19 00:06:57;;;;;;;6.28;2.63;;;17.30;99.90;;;;;;4248900;27;20497;-54
2023/09/19 00:09:00;;;;;;;8.32;2.17;;;17.30;99.80;;;;;;4248649;27;20096;-54
2023/09/19 00:11:05;;;;;;;6.80;1.85;;;17.30;99.80;;;;;;4248529;27;20049;-54
2023/09/19 00:13:12;;;;;;;8.35;1.80;;;17.30;99.90;;;;;;4248430;27;20054;-54
2023/09/19 00:15:17;;;;;;;8.00;1.95;;;17.30;99.90;;;;;;4248546;27;20437;-53
2023/09/19 00:17:20;;;;;;;14.45;2.22;;;17.30;99.90;;;;;;4248070;27;20178;-54
2023/09/19 00:19:23;;;;;;;9.90;2.30;;;17.30;99.90;;;;;;4248383;27;20046;-54
2023/09/19 00:21:26;;;;;;;5.30;1.50;;;17.30;99.90;;;;;;4248362;27;20051;-54
2023/09/19 00:23:28;;;;;;;8.70;2.42;;;17.30;99.90;;;;;;4248119;27;20039;-54
2023/09/19 00:25:32;;;;;;;8.00;2.08;;;17.30;99.90;;;;;;4248467;27;20122;-54
2023/09/19 00:27:35;;;;;;;11.85;2.88;;;17.30;99.90;;;;;;4248561;27;20039;-55
2023/09/19 00:29:37;;;;;;;7.85;2.28;;;17.30;99.90;;;;;;4248472;27;20039;-54
2023/09/19 00:31:39;;;;;;;7.85;2.38;;;17.20;99.90;;;;;;4229944;28;20122;-54
2023/09/19 00:33:43;;;;;;;10.20;2.40;;;17.20;99.90;;;;;;4248563;27;20047;-54
2023/09/19 00:35:48;;;;;;;8.57;2.22;;;17.20;99.90;;;;;;4248245;27;20070;-55
2023/09/19 00:37:51;;;;;;;10.52;2.10;;;17.20;99.90;;;;;;4248065;27;20047;-54
2023/09/19 00:39:53;;;;;;;8.02;2.03;;;17.20;99.90;;;;;;4247970;27;20043;-54
2023/09/19 00:41:55;;;;;;;11.93;2.60;;;17.20;99.90;;;;;;4248252;27;20050;-53
2023/09/19 00:43:57;;;;;;;6.65;2.10;;;17.20;99.90;;;;;;4248016;27;20107;-54
2023/09/19 00:46:00;;;;;;;13.25;3.20;;;17.20;99.90;;;;;;4248231;27;20130;-53
2023/09/19 00:48:03;;;;;;;7.20;2.47;;;17.10;99.90;;;;;;4247895;27;20050;-54
2023/09/19 00:50:10;;;;;;;9.98;2.50;;;17.10;99.90;;;;;;4247654;27;20416;-55
2023/09/19 00:52:12;;;;;;;8.48;2.03;;;17.10;99.90;;;;;;4248234;27;20096;-54
2023/09/19 00:54:18;;;;;;;8.48;2.72;;;17.10;99.90;;;;;;4247974;27;20043;-54
2023/09/19 00:56:20;;;;;;;9.00;2.60;;;17.10;99.90;;;;;;4247966;27;20043;-54
2023/09/19 00:58:22;;;;;;;6.50;2.17;;;17.10;99.90;;;;;;4247935;27;20386;-54
2023/09/19 01:00:25;;;;;;;9.57;2.25;;;17.10;99.90;;;;;;4248027;27;20043;-54
2023/09/19 01:02:28;;;;;;;6.95;2.28;;;17.10;99.90;;;;;;4247676;27;20047;-54
2023/09/19 01:04:31;;;;;;;10.15;2.55;;;17.10;99.90;;;;;;4247725;27;20047;-54
2023/09/19 01:06:36;;;;;;;12.38;2.35;;;17.00;99.90;;;;;;4247898;27;20096;-54
2023/09/19 01:08:38;;;;;;;9.55;2.17;;;17.00;99.90;;;;;;4248036;27;20481;-54
2023/09/19 01:10:52;;;;;;;9.43;2.30;;;17.00;99.90;;;;;;4247732;27;20089;-54
2023/09/19 01:13:05;;;;;;;9.00;2.13;;;16.90;99.90;;;;;;4247652;27;20050;-54
2023/09/19 01:15:17;;;;;;;10.48;2.15;;;17.00;99.90;;;;;;4247574;27;20051;-55
2023/09/19 01:17:32;;;;;;;7.15;2.05;;;16.90;99.90;;;;;;4248288;27;20039;-54
2023/09/19 01:20:04;;;;;;;6.05;2.10;;;16.90;99.90;;;;;;4247873;27;20039;-54
2023/09/19 01:22:17;;;;;;;8.05;2.20;;;16.80;99.90;;;;;;4247651;27;20491;-53
2023/09/19 01:25:04;;;;;;;9.27;2.40;;;16.70;99.90;;;;;;4247300;27;20054;-54
2023/09/19 01:27:28;;;;;;;10.88;2.28;;;16.70;99.90;;;;;;4247927;27;20441;-54
2023/09/19 01:29:39;;;;;;;11.48;2.67;;;16.70;99.90;;;;;;4247347;27;20454;-54
2023/09/19 01:31:44;;;;;;;10.93;2.03;;;16.70;99.90;;;;;;4247676;28;20058;-54
2023/09/19 01:33:59;;;;;;;5.63;1.92;;;16.70;99.90;;;;;;4247525;28;20901;-53
2023/09/19 01:36:03;;;;;;;8.77;2.00;;;16.70;99.90;;;;;;4247429;28;20055;-54
2023/09/19 01:38:06;;;;;;;10.02;2.50;;;16.70;99.90;;;;;;4247499;28;20405;-53
2023/09/19 01:40:14;;;;;;;6.32;2.25;;;16.60;99.90;;;;;;4247277;28;20528;-55
2023/09/19 01:42:31;;;;;;;6.85;2.00;;;16.60;99.90;;;;;;4247277;28;20066;-53
2023/09/19 01:44:43;;;;;;;10.35;1.98;;;16.60;99.90;;;;;;4247220;28;20537;-54
2023/09/19 01:46:47;;;;;;;8.57;2.17;;;16.60;99.90;;;;;;4247459;28;20043;-54
2023/09/19 01:48:57;;;;;;;9.27;2.17;;;16.50;99.90;;;;;;4247371;27;20062;-56
2023/09/19 01:51:02;;;;;;;10.85;2.45;;;16.60;99.90;;;;;;4247567;28;20039;-55
2023/09/19 01:53:09;;;;;;;10.70;2.35;;;16.60;99.90;;;;;;4247500;28;20528;-53
2023/09/19 01:55:17;;;;;;;6.22;2.05;;;16.60;99.90;;;;;;4247487;28;20457;-55
2023/09/19 01:57:28;;;;;;;13.55;2.83;;;16.60;99.90;;;;;;4247553;28;20070;-54
2023/09/19 01:59:36;;;;;;;11.73;2.47;;;16.60;99.90;;;;;;4247043;28;20043;-55
2023/09/19 02:01:40;;;;;;;12.70;2.60;;;16.60;99.90;;;;;;4247428;28;20047;-56
2023/09/19 02:03:44;;;;;;;14.90;3.25;;;16.60;99.90;;;;;;4247313;28;20480;-54
2023/09/19 02:05:50;;;;;;;16.05;2.70;;;16.50;99.90;;;;;;4247351;28;20100;-54
2023/09/19 02:07:53;;;;;;;11.80;2.45;;;16.50;99.90;;;;;;4247505;28;20096;-54
2023/09/19 02:09:55;;;;;;;8.13;2.55;;;16.50;99.90;;;;;;4247095;28;20039;-55
2023/09/19 02:11:59;;;;;;;9.35;2.30;;;16.60;99.90;;;;;;4247337;28;20074;-54
2023/09/19 02:14:01;;;;;;;7.90;2.10;;;16.50;99.90;;;;;;4246859;28;20086;-54
2023/09/19 02:16:04;;;;;;;9.60;2.42;;;16.50;99.90;;;;;;4247058;28;20074;-54
2023/09/19 02:18:07;;;;;;;11.00;3.50;;;16.50;99.90;;;;;;4246982;28;20043;-54
2023/09/19 02:20:14;;;;;;;10.10;2.00;;;16.50;99.90;;;;;;4247124;28;20092;-54
2023/09/19 02:22:16;;;;;;;11.02;2.95;;;16.50;99.90;;;;;;4247271;28;20075;-54
2023/09/19 02:24:19;;;;;;;13.95;3.05;;;16.50;99.90;;;;;;4246842;28;20036;-55
2023/09/19 02:26:21;;;;;;;10.18;2.40;;;16.50;99.90;;;;;;4246946;28;20053;-54
2023/09/19 02:28:24;;;;;;;7.50;1.75;;;16.40;99.90;;;;;;4246709;28;20119;-54
2023/09/19 02:30:26;;;;;;;13.95;3.00;;;16.50;99.90;;;;;;4246992;28;20070;-55
2023/09/19 02:32:29;;;;;;;9.38;1.98;;;16.40;99.90;;;;;;4247098;28;20545;-54
2023/09/19 02:34:32;;;;;;;10.40;2.58;;;16.40;99.90;;;;;;4247246;28;20047;-54
2023/09/19 02:36:36;;;;;;;15.10;2.67;;;16.40;99.90;;;;;;4247346;27;20417;-54
2023/09/19 02:38:38;;;;;;;15.55;2.80;;;16.30;99.90;;;;;;4250214;27;20043;-54
2023/09/19 02:40:40;;;;;;;12.73;2.63;;;16.30;99.90;;;;;;4250301;27;20047;-54
2023/09/19 02:42:46;;;;;;;12.82;3.28;;;16.40;99.90;;;;;;4249835;27;20419;-54
2023/09/19 02:44:48;;;;;;;10.50;2.40;;;16.40;99.90;;;;;;4249923;27;20071;-55
2023/09/19 02:46:51;;;;;;;15.00;2.65;;;16.30;99.90;;;;;;4250045;27;20067;-59
2023/09/19 02:48:54;;;;;;;10.63;2.17;;;16.40;99.90;;;;;;4249905;27;20134;-54
2023/09/19 02:50:56;;;;;;;10.07;2.65;;;16.40;99.90;;;;;;4250115;27;20051;-54
2023/09/19 02:53:00;;;;;;;8.85;2.40;;;16.30;99.90;;;;;;4250293;27;20509;-54
2023/09/19 02:55:04;;;;;;;12.20;3.25;;;16.30;99.90;;;;;;4250233;27;20145;-54
2023/09/19 02:57:07;;;;;;;11.77;2.47;;;16.30;99.90;;;;;;4250072;27;20077;-55
2023/09/19 02:59:10;;;;;;;14.85;3.60;;;16.30;99.90;;;;;;4251601;27;20043;-54
2023/09/19 03:01:13;;;;;;;11.82;3.15;;;16.20;99.90;;;;;;4250217;27;20413;-54
2023/09/19 03:03:18;;;;;;;9.82;2.33;;;16.20;99.90;;;;;;4249746;27;20069;-55
2023/09/19 03:05:21;;;;;;;15.10;2.63;;;16.30;99.90;;;;;;4249659;27;20047;-53
2023/09/19 03:07:25;;;;;;;14.77;2.95;;;16.30;99.90;;;;;;4231358;28;20054;-54
2023/09/19 03:09:28;;;;;;;10.63;2.97;;;16.20;99.90;;;;;;4249531;27;20043;-54
2023/09/19 03:11:31;;;;;;;10.45;2.75;;;16.30;99.90;;;;;;4249160;27;20078;-53
2023/09/19 03:13:33;;;;;;;13.45;3.33;;;16.30;99.90;;;;;;4249758;27;20047;-54
2023/09/19 03:15:38;;;;;;;14.10;2.80;;;16.20;99.90;;;;;;4249404;27;20502;-54
2023/09/19 03:17:44;;;;;;;13.07;2.88;;;16.20;99.90;;;;;;4249197;27;20043;-53
2023/09/19 03:19:47;;;;;;;13.73;2.85;;;16.20;99.90;;;;;;4249446;27;20485;-54
2023/09/19 03:21:50;;;;;;;13.02;3.22;;;16.20;99.90;;;;;;4249320;27;20092;-54
2023/09/19 03:23:52;;;;;;;14.02;3.35;;;16.20;99.90;;;;;;4249425;27;20057;-54
2023/09/19 03:25:56;;;;;;;13.15;3.03;;;16.20;99.90;;;;;;4249231;27;20047;-54
2023/09/19 03:27:58;;;;;;;13.43;3.03;;;16.20;99.90;;;;;;4249653;27;20058;-54
2023/09/19 03:30:00;;;;;;;14.82;2.72;;;16.20;99.90;;;;;;4249632;27;20064;-54
2023/09/19 03:32:03;;;;;;;13.95;3.17;;;16.20;99.90;;;;;;4249329;27;20412;-54
2023/09/19 03:34:05;;;;;;;9.85;2.45;;;16.20;99.90;;;;;;4249337;27;20054;-53
2023/09/19 03:36:07;;;;;;;10.88;3.28;;;16.20;99.90;;;;;;4249244;27;20118;-54
2023/09/19 03:38:09;;;;;;;15.48;3.25;;;16.20;99.90;;;;;;4249133;27;20047;-54
2023/09/19 03:40:12;;;;;;;7.22;2.05;;;16.20;99.90;;;;;;4248943;27;20073;-54
2023/09/19 03:42:16;;;;;;;12.60;2.53;;;16.10;99.90;;;;;;4249292;27;20039;-54
2023/09/19 03:44:18;;;;;;;14.75;3.30;;;16.10;99.90;;;;;;4249107;27;20047;-54
2023/09/19 03:46:20;;;;;;;16.40;4.03;;;16.20;99.90;;;;;;4249241;27;20047;-54
2023/09/19 03:48:22;;;;;;;14.38;3.00;;;16.20;99.90;;;;;;4248076;27;20083;-54
2023/09/19 03:50:25;;;;;;;13.35;3.15;;;16.20;99.90;;;;;;4249282;27;20043;-54
2023/09/19 03:52:27;;;;;;;12.00;3.45;;;16.10;99.90;;;;;;4249153;27;20051;-54
2023/09/19 03:54:29;;;;;;;13.00;2.97;;;16.10;99.90;;;;;;4248842;27;20051;-56
2023/09/19 03:56:32;;;;;;;13.50;3.10;;;16.10;99.90;;;;;;4248899;27;20039;-54
2023/09/19 03:58:39;;;;;;;9.05;3.33;;;16.10;99.90;;;;;;4249020;27;20049;-54
2023/09/19 04:00:41;;;;;;;11.95;3.33;;;16.10;99.90;;;;;;4248607;27;20043;-54
2023/09/19 04:02:43;;;;;;;10.65;3.22;;;16.10;99.90;;;;;;4248952;27;20055;-53
2023/09/19 04:04:45;;;;;;;12.52;3.05;;;16.10;99.90;;;;;;4248769;27;20043;-54
2023/09/19 04:06:47;;;;;;;11.02;2.88;;;16.10;99.90;;;;;;4249052;27;20039;-54
2023/09/19 04:08:49;;;;;;;10.65;2.90;;;16.00;99.90;;;;;;4248573;27;20492;-53
2023/09/19 04:10:52;;;;;;;14.85;3.05;;;16.00;99.90;;;;;;4248154;27;20126;-53
2023/09/19 04:12:55;;;;;;;15.02;3.20;;;16.00;99.90;;;;;;4248580;27;20070;-53
2023/09/19 04:14:59;;;;;;;12.85;2.80;;;16.10;99.90;;;;;;4248719;27;20054;-54
2023/09/19 04:17:01;;;;;;;15.63;3.10;;;16.10;99.90;;;;;;4248496;27;20126;-54
2023/09/19 04:19:03;;;;;;;12.85;3.13;;;16.10;99.90;;;;;;4230293;28;20118;-53
2023/09/19 04:21:05;;;;;;;11.85;2.67;;;16.00;99.90;;;;;;4248433;27;20043;-52
2023/09/19 04:23:08;;;;;;;11.57;2.95;;;16.00;99.90;;;;;;4248470;27;20051;-53
2023/09/19 04:25:10;;;;;;;11.85;3.45;;;16.00;99.90;;;;;;4248012;27;20047;-53
2023/09/19 04:27:15;;;;;;;10.55;2.97;;;16.10;99.90;;;;;;4248338;27;20114;-53
2023/09/19 04:29:19;;;;;;;16.70;3.40;;;16.10;99.90;;;;;;4248452;27;20055;-54
2023/09/19 04:31:22;;;;;;;15.13;3.15;;;16.10;99.90;;;;;;4248467;27;20122;-54
2023/09/19 04:33:27;;;;;;;15.85;3.78;;;16.10;99.90;;;;;;4248492;27;20039;-54
2023/09/19 04:35:31;;;;;;;15.50;3.42;;;16.10;99.90;;;;;;4248419;27;20476;-52
2023/09/19 04:37:33;;;;;;;11.95;2.60;;;16.10;99.90;;;;;;4248679;27;20058;-54
2023/09/19 04:39:35;;;;;;;17.17;3.35;;;16.00;99.90;;;;;;4249149;27;20074;-55
2023/09/19 04:41:40;;;;;;;13.65;3.03;;;16.00;99.90;;;;;;4250576;27;20537;-55
2023/09/19 04:43:43;;;;;;;13.77;2.95;;;16.10;99.90;;;;;;4248471;27;20480;-54
2023/09/19 04:45:46;;;;;;;11.57;3.13;;;16.10;99.90;;;;;;4247757;27;20055;-52
2023/09/19 04:47:50;;;;;;;10.25;2.53;;;16.10;99.90;;;;;;4229920;28;20047;-53
2023/09/19 04:49:52;;;;;;;11.00;2.38;;;16.10;99.90;;;;;;4247841;27;20107;-54
2023/09/19 04:51:55;;;;;;;13.88;3.10;;;16.10;99.90;;;;;;4247940;27;20096;-53
2023/09/19 04:53:57;;;;;;;12.30;2.80;;;16.10;99.90;;;;;;4247804;27;20047;-53
2023/09/19 04:55:59;;;;;;;13.85;2.30;;;16.10;99.90;;;;;;4248159;27;20381;-53
2023/09/19 04:58:02;;;;;;;10.05;2.83;;;16.10;99.90;;;;;;4248389;27;20054;-53
2023/09/19 05:00:12;;;;;;;9.35;3.15;;;16.00;99.90;;;;;;4247886;27;20047;-54
2023/09/19 05:02:14;;;;;;;11.57;3.10;;;16.00;99.90;;;;;;4247778;27;20120;-54
2023/09/19 05:04:17;;;;;;;11.57;2.80;;;16.00;99.90;;;;;;4248080;27;20409;-54
2023/09/19 05:06:22;;;;;;;15.90;3.30;;;15.90;99.90;;;;;;4248014;27;20075;-54
2023/09/19 05:08:25;;;;;;;12.63;3.45;;;15.90;99.90;;;;;;4247590;27;20099;-54
2023/09/19 05:10:27;;;;;;;11.00;2.88;;;15.90;99.90;;;;;;4247940;27;20493;-54
2023/09/19 05:12:29;;;;;;;14.27;3.22;;;15.90;99.90;;;;;;4247949;27;20047;-54
2023/09/19 05:14:31;;;;;;;12.05;2.72;;;15.80;99.90;;;;;;4229651;28;20074;-53
2023/09/19 05:16:34;;;;;;;13.23;2.67;;;15.90;99.90;;;;;;4247806;27;20039;-54
2023/09/19 05:18:39;;;;;;;14.82;2.83;;;15.90;99.90;;;;;;4247788;27;20058;-53
2023/09/19 05:20:43;;;;;;;14.27;3.00;;;15.90;99.90;;;;;;4247705;27;20051;-54
2023/09/19 05:22:46;;;;;;;16.15;3.35;;;15.90;99.90;;;;;;4247712;27;20096;-53
2023/09/19 05:24:48;;;;;;;14.57;2.97;;;15.80;99.90;;;;;;4248207;27;20097;-55
2023/09/19 05:26:50;;;;;;;11.68;2.67;;;15.80;99.90;;;;;;4247917;27;20091;-54
2023/09/19 05:28:52;;;;;;;13.05;3.13;;;15.90;99.90;;;;;;4248204;27;20096;-53
2023/09/19 05:30:55;;;;;;;9.82;2.90;;;15.80;99.90;;;;;;4247739;27;20470;-53
2023/09/19 05:32:57;;;;;;;11.57;3.30;;;15.80;99.90;;;;;;4247888;27;20073;-53
2023/09/19 05:34:59;;;;;;;15.18;3.25;;;15.90;99.90;;;;;;4248113;27;20126;-63
2023/09/19 05:37:03;;;;;;;13.85;3.42;;;15.80;99.90;;;;;;4229686;28;20043;-53
2023/09/19 05:39:08;;;;;;;18.58;3.55;;;15.80;99.90;;;;;;4247979;28;20047;-53
2023/09/19 05:41:13;;;;;;;14.80;3.35;;;15.80;99.90;;;;;;4247796;28;20093;-53
2023/09/19 05:43:15;;;;;;;;;;;15.80;99.90;;;;;;4248022;28;20166;-53
2023/09/19 05:45:24;;;;;;;10.60;3.28;;;15.80;99.90;;;;;;4246760;28;19923;-55
2023/09/19 05:47:27;;;;;;;21.05;3.30;;;15.80;99.90;;;;;;4247816;28;20078;-54
2023/09/19 05:49:29;;;;;;;17.73;3.45;;;15.80;99.90;;;;;;4247331;28;20421;-54
2023/09/19 05:51:31;;;;;;;12.68;2.83;;;15.80;99.90;;;;;;4247246;28;20051;-54
2023/09/19 05:53:34;;;;;;;13.73;3.88;;;15.80;99.90;;;;;;4229066;28;20056;-53
2023/09/19 05:55:36;;;;;;;10.35;3.13;;;15.80;99.90;;;;;;4247464;28;20501;-53
2023/09/19 05:57:39;;;;;;;13.98;3.25;;;15.80;99.90;;;;;;4247700;28;20187;-53
2023/09/19 05:59:42;;;;;;;16.65;3.60;;;15.80;99.90;;;;;;4212484;28;20072;-53
2023/09/19 06:01:44;;;;;;;12.23;3.13;;;15.80;99.90;;;;;;4247357;28;20081;-53
2023/09/19 06:03:48;;;;;;;16.73;3.85;;;15.90;99.90;;;;;;4247417;28;20043;-53
2023/09/19 06:05:51;;;;;;;13.95;3.58;;;15.80;99.90;;;;;;4247143;28;20131;-54
2023/09/19 06:07:53;;;;;;;17.60;3.78;;;15.90;99.90;;;;;;4229510;28;20054;-52
2023/09/19 06:10:00;;;;;;;16.15;3.97;;;15.90;99.90;;;;;;4229267;28;20130;-53
2023/09/19 06:12:04;;;;;;;15.60;3.75;;;15.90;99.90;;;;;;4248802;27;20147;-52
2023/09/19 06:14:06;;;;;;;14.43;2.95;;;15.90;99.90;;;;;;4250676;27;20492;-53
2023/09/19 06:16:09;;;;;;;13.48;3.45;;;15.90;99.90;;;;;;4250615;27;20046;-53
2023/09/19 06:18:17;;;;;;;19.95;3.72;;;15.90;99.90;;;;;;4232742;28;20081;-53
2023/09/19 06:20:19;;;;;;;14.55;3.70;;;15.90;99.90;;;;;;4251128;27;20047;-58
2023/09/19 06:22:22;;;;;;;9.27;2.78;;;16.00;99.90;;;;;;4253223;27;20126;-53
2023/09/19 06:24:25;;;;;;;14.43;3.33;;;16.00;99.90;;;;;;4251078;27;20510;-54
2023/09/19 06:26:29;;;;;;;17.02;2.97;;;16.00;99.90;;;;;;4250546;27;20503;-53
2023/09/19 06:28:33;;;;;;;11.65;2.60;;;16.00;99.90;;;;;;4250395;27;20051;-54
2023/09/19 06:30:35;;;;;;;11.68;2.88;;;16.00;99.90;;;;;;4250518;27;20103;-54
2023/09/19 06:32:38;;;;;;;12.95;3.30;;;16.00;99.90;;;;;;4250117;27;20424;-54
2023/09/19 06:34:43;;;;;;;14.20;3.55;;;16.00;99.90;;;;;;4250039;27;20088;-54
2023/09/19 06:36:46;;;;;;;12.63;3.15;;;16.10;99.90;;;;;;4250078;27;20113;-53
2023/09/19 06:38:48;;;;;;;21.88;3.88;;;16.10;99.90;;;;;;4250369;27;20074;-54
2023/09/19 06:40:50;;;;;;;9.07;2.40;;;16.10;99.90;;;;;;4250245;27;20047;-53
2023/09/19 06:42:55;;;;;;;12.35;3.20;;;16.30;99.90;;;;;;4249950;27;20055;-54
2023/09/19 06:44:57;;;;;;;11.90;2.85;;;16.40;99.90;;;;;;4250238;27;20054;-54
2023/09/19 06:47:00;;;;;;;18.63;3.60;;;16.50;99.90;;;;;;4250177;27;20130;-54
2023/09/19 06:49:06;;;;;;;9.00;2.55;;;16.50;99.90;;;;;;4249468;27;20047;-54
2023/09/19 06:51:08;;;;;;;11.68;3.10;;;16.50;99.90;;;;;;4249859;27;20043;-54
2023/09/19 06:53:10;;;;;;;14.63;3.17;;;16.60;99.90;;;;;;4250159;27;20043;-54
2023/09/19 06:55:13;;;;;;;14.90;3.05;;;16.70;99.90;;;;;;4250073;27;20373;-54
2023/09/19 06:57:15;;;;;;;9.80;2.70;;;16.70;99.90;;;;;;4249826;27;20400;-53
2023/09/19 06:59:19;;;;;;;10.85;3.08;;;16.70;99.90;;;;;;4231374;28;20478;-54
2023/09/19 07:01:21;;;;;;;12.15;3.20;;;16.70;99.90;;;;;;4250068;27;20465;-54
2023/09/19 07:03:26;;;;;;;13.43;2.75;;;16.80;99.90;;;;;;4231220;28;20412;-54
2023/09/19 07:05:28;;;;;;;;;;;16.90;99.90;;;;;;4250500;27;20108;-54
2023/09/19 07:07:30;;;;;;;17.90;3.50;;;16.90;99.90;;;;;;4249946;27;19920;-52
2023/09/19 07:09:32;;;;;;;15.27;3.15;;;16.80;99.90;;;;;;4249672;27;20043;-53
2023/09/19 07:11:34;;;;;;;13.85;3.00;;;16.90;99.90;;;;;;4249620;27;20122;-54
2023/09/19 07:13:36;;;;;;;13.25;3.05;;;16.90;99.90;;;;;;4249875;27;20096;-54
2023/09/19 07:15:46;;;;;;;12.68;3.15;;;16.80;99.90;;;;;;4249892;27;20076;-54
2023/09/19 07:17:48;;;;;;;14.10;3.35;;;16.80;99.90;;;;;;4234330;27;20476;-53
2023/09/19 07:19:51;;;;;;;12.52;3.28;;;16.70;99.90;;;;;;4215479;28;20044;-53
2023/09/19 07:21:53;;;;;;;17.48;3.25;;;16.80;99.90;;;;;;4233586;28;20050;-54
2023/09/19 07:23:55;;;;;;;11.50;3.28;;;16.80;99.90;;;;;;4233506;28;20051;-53
2023/09/19 07:25:58;;;;;;;13.45;3.05;;;16.90;99.90;;;;;;4233023;28;20044;-54
2023/09/19 07:28:00;;;;;;;15.20;3.10;;;16.90;99.90;;;;;;4214720;28;20044;-54
2023/09/19 07:30:03;;;;;;;19.58;3.40;;;17.00;99.90;;;;;;4232331;28;20096;-54
2023/09/19 07:32:07;;;;;;;17.30;3.78;;;17.00;99.90;;;;;;4231989;28;20043;-53
2023/09/19 07:34:10;;;;;;;18.67;4.07;;;17.10;99.90;;;;;;4232469;28;20072;-54
2023/09/19 07:36:16;;;;;;;14.90;3.17;;;17.10;99.90;;;;;;4232372;28;20075;-54
2023/09/19 07:38:18;;;;;;;16.90;2.92;;;17.20;99.90;;;;;;4232322;28;20131;-54
2023/09/19 07:40:20;;;;;;;12.88;2.88;;;17.20;99.90;;;;;;4232295;28;20108;-54
2023/09/19 07:42:23;;;;;;;18.83;3.30;;;17.20;99.90;;;;;;4232270;28;20067;-54
2023/09/19 07:44:25;;;;;;;16.02;3.45;;;17.30;99.80;;;;;;4232563;28;20039;-54
2023/09/19 07:46:27;;;;;;;17.30;3.78;;;17.30;99.90;;;;;;4232214;28;20048;-55
2023/09/19 07:48:31;;;;;;;12.85;3.15;;;17.30;99.80;;;;;;4231854;28;20101;-53
2023/09/19 07:50:36;;;;;;;15.23;2.85;;;17.40;99.80;;;;;;4232078;28;20234;-53
2023/09/19 07:52:39;;;;;;;14.93;3.35;;;17.40;99.50;;;;;;4231859;28;20044;-54
2023/09/19 07:54:43;;;;;;;13.80;3.20;;;17.40;99.40;;;;;;4232479;28;20043;-54
2023/09/19 07:56:46;;;;;;;12.35;3.20;;;17.50;99.40;;;;;;4232969;28;20070;-55
2023/09/19 07:58:48;;;;;;;20.95;4.82;;;17.40;99.10;;;;;;4234205;28;20071;-62
2023/09/19 08:00:51;;;;;;;14.43;3.60;;;17.50;99.10;;;;;;4233202;28;20074;-54
2023/09/19 08:02:53;;;;;;;16.20;3.78;;;17.50;99.10;;;;;;4231692;28;20040;-53
2023/09/19 08:05:11;;;;;;;11.40;2.90;;;17.40;99.00;;;;;;4231731;28;20044;-54
2023/09/19 08:07:13;;;;;;;11.05;2.97;;;17.50;99.10;;;;;;4213651;28;20052;-54
2023/09/19 08:09:20;;;;;;;18.02;3.30;;;17.50;98.90;;;;;;4231508;28;20048;-54
2023/09/19 08:11:30;;;;;;;12.85;3.42;;;17.50;99.10;;;;;;4231698;28;20058;-53
2023/09/19 08:13:32;;;;;;;13.82;3.58;;;17.50;99.10;;;;;;4231529;28;20044;-54
2023/09/19 08:15:34;;;;;;;13.52;3.20;;;17.60;98.60;;;;;;4231524;28;20538;-54
2023/09/19 08:17:40;;;;;;;18.40;3.72;;;17.60;99.00;;;;;;4245366;27;20054;-53
2023/09/19 08:19:44;;;;;;;15.27;3.10;;;17.60;99.00;;;;;;4248790;27;20108;-55
2023/09/19 08:21:48;;;;;;;13.00;3.15;;;17.60;99.10;;;;;;4248604;27;20411;-54
2023/09/19 08:23:50;;;;;;;22.03;3.73;;;17.60;99.00;;;;;;4248723;27;20453;-53
2023/09/19 08:25:56;;;;;;;13.00;3.30;;;17.50;99.00;;;;;;4248763;27;20431;-53
2023/09/19 08:28:01;;;;;;;10.95;3.33;;;17.50;99.00;;;;;;4248602;27;20055;-54
2023/09/19 08:30:04;;;;;;;11.32;2.92;;;17.50;98.90;;;;;;4248036;27;20119;-54
2023/09/19 08:32:06;;;;;;;16.20;3.08;;;17.50;99.00;;;;;;4248619;27;20043;-54
2023/09/19 08:34:08;;;;;;;15.52;3.10;;;17.50;98.90;;;;;;4247897;27;20044;-54
2023/09/19 08:36:11;;;;;;;15.60;3.22;;;17.60;98.90;;;;;;4248732;27;20047;-54
2023/09/19 08:38:15;;;;;;;11.65;2.80;;;17.70;99.00;;;;;;4248333;27;20043;-54
2023/09/19 08:40:17;;;;;;;12.20;2.88;;;17.70;98.90;;;;;;4248200;27;20040;-53
2023/09/19 08:42:21;;;;;;;10.57;2.85;;;17.80;98.60;;;;;;4230151;28;20040;-51
2023/09/19 08:44:24;;;;;;;11.30;3.03;;;18.00;98.70;;;;;;4248640;27;20197;-51
2023/09/19 08:46:30;;;;;;;19.50;3.42;;;18.00;98.60;;;;;;4247615;27;20061;-52
2023/09/19 08:48:34;;;;;;;13.55;3.30;;;18.10;98.60;;;;;;4247918;27;20415;-51
2023/09/19 08:50:43;;;;;;;14.38;3.00;;;18.10;98.40;;;;;;4248081;27;20070;-52
2023/09/19 08:52:47;;;;;;;10.13;2.55;;;18.20;98.30;;;;;;4247980;27;20054;-51
2023/09/19 08:55:01;;;;;;;9.25;3.20;;;18.20;98.40;;;;;;4247889;27;20166;-52
2023/09/19 08:57:10;;;;;;;13.30;2.92;;;18.30;98.40;;;;;;4248296;27;20059;-51
2023/09/19 08:59:14;;;;;;;16.02;3.10;;;18.30;98.20;;;;;;4247801;27;20050;-52
2023/09/19 09:01:22;;;;;;;10.63;2.53;;;18.30;98.30;;;;;;4247896;27;20047;-51
2023/09/19 09:03:25;;;;;;;9.93;2.75;;;18.40;98.40;;;;;;4248019;27;20091;-52
2023/09/19 09:05:28;;;;;;;12.95;2.45;;;18.40;98.10;;;;;;4247862;27;20073;-51
2023/09/19 09:07:30;;;;;;;16.58;3.45;;;18.30;98.10;;;;;;4247989;27;20099;-52
2023/09/19 09:09:34;;;;;;;8.48;2.63;;;18.40;98.10;;;;;;4247912;27;20081;-51
2023/09/19 09:11:39;;;;;;;14.07;2.92;;;18.30;97.90;;;;;;4248362;27;20130;-51
2023/09/19 09:13:42;;;;;;;11.95;2.40;;;18.40;98.00;;;;;;4247795;27;20702;-51
2023/09/19 09:15:44;;;;;;;8.48;2.35;;;18.40;98.00;;;;;;4248008;27;20480;-51
2023/09/19 09:17:48;;;;;;;9.80;2.65;;;18.50;97.90;;;;;;4247968;27;20047;-52
2023/09/19 09:19:52;;;;;;;12.93;2.97;;;18.50;98.00;;;;;;4248005;27;20047;-52
2023/09/19 09:21:54;;;;;;;12.98;1.98;;;18.50;97.90;;;;;;4247532;27;20046;-52
2023/09/19 09:23:56;;;;;;;11.30;2.28;;;18.60;97.80;;;;;;4247655;27;20043;-53
2023/09/19 09:26:02;;;;;;;9.43;2.45;;;18.60;97.80;;;;;;4247904;27;20459;-52
2023/09/19 09:28:07;;;;;;;17.77;2.97;;;18.50;97.70;;;;;;4247336;27;20049;-51
2023/09/19 09:30:09;;;;;;;12.10;3.07;;;18.50;97.80;;;;;;4247435;27;20043;-52
2023/09/19 09:32:21;;;;;;;9.23;2.33;;;18.50;97.70;;;;;;4247500;27;20477;-51
2023/09/19 09:34:32;;;;;;;9.65;2.75;;;18.60;98.00;;;;;;4229622;28;20048;-54
2023/09/19 09:36:36;;;;;;;10.75;2.65;;;18.60;97.70;;;;;;4247664;27;20047;-53
2023/09/19 09:38:48;;;;;;;10.98;2.70;;;18.60;97.50;;;;;;4247629;27;20054;-55
2023/09/19 09:40:58;;;;;;;13.63;2.88;;;18.60;97.50;;;;;;4247693;28;20050;-54
2023/09/19 09:43:03;;;;;;;10.90;2.65;;;18.70;97.50;;;;;;4229396;28;20047;-54
2023/09/19 09:45:19;;;;;;;9.48;2.67;;;18.80;97.40;;;;;;4247873;28;20055;-54
2023/09/19 09:47:41;;;;;;;9.50;2.53;;;18.80;97.30;;;;;;4249343;27;20050;-53
2023/09/19 09:49:54;;;;;;;13.35;2.60;;;18.90;97.00;;;;;;4250780;27;20420;-54
2023/09/19 09:52:05;;;;;;;9.57;2.33;;;18.90;97.10;;;;;;4250837;27;20047;-54
2023/09/19 09:54:15;;;;;;;8.70;2.70;;;19.00;96.60;;;;;;4250970;27;20476;-54
2023/09/19 09:56:18;;;;;;;8.43;1.90;;;19.10;96.80;;;;;;4250994;27;20050;-54
2023/09/19 09:58:23;;;;;;;14.27;2.67;;;19.20;96.50;;;;;;4250725;27;20080;-54
2023/09/19 10:00:39;;;;;;;9.80;2.42;;;19.30;96.50;;;;;;4250994;27;20114;-52
2023/09/19 10:02:46;;;;;;;10.75;2.80;;;19.30;96.00;;;;;;4250570;27;20389;-54
2023/09/19 10:05:14;;;;;;;13.65;2.55;;;19.40;96.20;;;;;;4250997;27;20467;-51
2023/09/19 10:07:31;;;;;;;11.60;2.33;;;19.40;95.90;;;;;;4250714;27;20117;-51
2023/09/19 10:09:47;;;;;;;7.10;2.08;;;19.60;95.90;;;;;;4250782;27;20400;-54
2023/09/19 10:12:03;;;;;;;8.35;1.85;;;19.70;95.50;;;;;;4250421;27;20411;-54
2023/09/19 10:14:09;;;;;;;9.05;2.22;;;19.70;95.40;;;;;;4250619;27;20259;-54
2023/09/19 10:16:18;;;;;;;6.93;1.90;;;19.60;95.00;;;;;;4250487;27;20062;-55
2023/09/19 10:18:27;;;;;;;7.82;1.77;;;19.70;95.30;;;;;;4250883;27;20043;-54
2023/09/19 10:20:38;;;;;;;6.97;2.22;;;19.70;94.90;;;;;;4250483;27;20043;-52
2023/09/19 10:22:42;;;;;;;6.15;1.80;;;19.80;95.20;;;;;;4250654;27;20092;-52
2023/09/19 10:24:46;;;;;;;4.80;1.40;;;19.70;94.50;;;;;;4250319;27;20039;-51
2023/09/19 10:27:03;;;;;;;8.45;1.95;;;19.70;94.40;;;;;;4249990;27;20107;-51
2023/09/19 10:29:07;;;;;;;6.22;1.95;;;19.70;94.00;;;;;;4250319;27;20043;-52
2023/09/19 10:31:14;;;;;;;8.77;1.95;;;19.90;94.20;;;;;;4250492;27;20054;-51
2023/09/19 10:33:22;;;;;;;4.40;1.52;;;20.00;94.20;;;;;;4250080;27;20047;-51
2023/09/19 10:35:25;;;;;;;6.13;1.75;;;20.20;94.50;;;;;;4250245;27;20054;-52
2023/09/19 10:37:29;;;;;;;7.05;1.63;;;20.30;93.90;;;;;;4250554;27;20499;-51
2023/09/19 10:39:33;;;;;;;5.55;1.70;;;20.30;93.70;;;;;;4250167;27;20043;-52
2023/09/19 10:41:37;;;;;;;9.25;2.03;;;20.40;93.70;;;;;;4249832;27;20122;-52
2023/09/19 10:43:44;;;;;;;9.63;1.83;;;20.40;93.40;;;;;;4250252;27;20118;-52